createdAt,value
2023-11-25T00:00:00.718Z,8.48
2023-11-25T00:01:32.814Z,8.40
2023-11-25T00:03:05.064Z,8.42
2023-11-25T00:04:37.112Z,8.47
2023-11-25T00:06:09.480Z,8.50
2023-11-25T00:07:41.504Z,8.49
2023-11-25T00:09:17.338Z,8.46
2023-11-25T00:10:49.496Z,8.44
2023-11-25T00:12:24.220Z,8.46
2023-11-25T00:13:56.245Z,8.42
2023-11-25T00:15:28.358Z,8.40
2023-11-25T00:18:34.147Z,8.47
2023-11-25T00:20:06.673Z,8.46
2023-11-25T00:21:38.837Z,8.44
2023-11-25T00:23:10.937Z,8.39
2023-11-25T00:24:43.001Z,8.36
2023-11-25T00:26:15.011Z,8.29
2023-11-25T00:27:50.835Z,8.32
2023-11-25T00:29:22.821Z,8.31
2023-11-25T00:30:54.959Z,8.31
2023-11-25T00:32:26.996Z,8.26
2023-11-25T00:33:59.940Z,8.28
2023-11-25T00:35:32.171Z,8.26
2023-11-25T00:37:05.368Z,8.23
2023-11-25T00:38:37.575Z,8.17
2023-11-25T00:40:14.279Z,8.20
2023-11-25T00:41:46.289Z,8.21
2023-11-25T00:43:18.413Z,8.15
2023-11-25T00:44:50.844Z,8.17
2023-11-25T00:46:22.941Z,8.16
2023-11-25T00:47:58.135Z,8.13
2023-11-25T00:49:30.315Z,8.10
2023-11-25T00:51:02.800Z,8.12
2023-11-25T00:52:35.001Z,8.13
2023-11-25T00:55:38.803Z,8.18
2023-11-25T00:57:10.818Z,8.08
2023-11-25T00:58:43.462Z,8.01
2023-11-25T01:00:19.995Z,7.99
2023-11-25T01:01:54.295Z,8.02
2023-11-25T01:03:26.528Z,8.01
2023-11-25T01:04:58.681Z,7.94
2023-11-25T01:06:31.506Z,7.93
2023-11-25T01:08:03.584Z,7.95
2023-11-25T01:09:36.071Z,8.01
2023-11-25T01:11:08.442Z,8.06
2023-11-25T01:12:40.530Z,8.08
2023-11-25T01:14:13.586Z,8.13
2023-11-25T01:15:46.304Z,8.10
2023-11-25T01:17:18.481Z,8.14
2023-11-25T01:18:50.492Z,8.14
2023-11-25T01:20:23.215Z,8.15
2023-11-25T01:21:55.433Z,8.17
2023-11-25T01:23:27.569Z,8.15
2023-11-25T01:24:59.577Z,8.14
2023-11-25T01:26:31.577Z,8.13
2023-11-25T01:28:05.362Z,8.13
2023-11-25T01:29:37.567Z,8.14
2023-11-25T01:31:11.677Z,8.09
2023-11-25T01:32:43.743Z,8.03
2023-11-25T01:34:15.840Z,7.99
2023-11-25T01:35:48.768Z,8.01
2023-11-25T01:37:20.894Z,8.04
2023-11-25T01:38:52.888Z,8.08
2023-11-25T01:40:24.910Z,8.07
2023-11-25T01:41:56.959Z,8.06
2023-11-25T01:43:29.031Z,8.06
2023-11-25T01:45:03.964Z,8.05
2023-11-25T01:46:40.029Z,8.04
2023-11-25T01:48:12.252Z,8.04
2023-11-25T01:49:45.384Z,8.02
2023-11-25T01:51:17.490Z,8.02
2023-11-25T01:52:49.916Z,7.98
2023-11-25T01:54:22.001Z,7.91
2023-11-25T01:55:54.326Z,7.97
2023-11-25T01:57:29.217Z,7.96
2023-11-25T01:59:01.495Z,7.98
2023-11-25T02:00:36.126Z,7.96
2023-11-25T02:02:08.354Z,7.93
2023-11-25T02:03:41.462Z,7.81
2023-11-25T02:05:13.988Z,7.77
2023-11-25T02:06:46.485Z,7.76
2023-11-25T02:08:18.478Z,7.79
2023-11-25T02:09:50.561Z,7.73
2023-11-25T02:11:22.622Z,7.68
2023-11-25T02:12:54.724Z,7.65
2023-11-25T02:14:27.131Z,7.53
2023-11-25T02:15:59.474Z,7.40
2023-11-25T02:17:31.609Z,7.39
2023-11-25T02:19:03.636Z,7.28
2023-11-25T02:20:42.246Z,7.22
2023-11-25T02:22:14.300Z,7.20
2023-11-25T02:23:46.411Z,7.23
2023-11-25T02:25:18.456Z,7.14
2023-11-25T02:26:58.665Z,7.06
2023-11-25T02:28:30.693Z,7.03
2023-11-25T02:30:07.710Z,7.03
2023-11-25T02:31:40.111Z,6.97
2023-11-25T02:33:13.415Z,6.97
2023-11-25T02:34:47.322Z,6.99
2023-11-25T02:36:19.326Z,6.79
2023-11-25T02:37:51.467Z,6.74
2023-11-25T02:39:24.533Z,6.66
2023-11-25T02:40:56.660Z,6.67
2023-11-25T02:42:28.637Z,6.64
2023-11-25T02:44:03.994Z,6.71
2023-11-25T02:47:15.267Z,6.82
2023-11-25T02:48:51.291Z,6.77
2023-11-25T02:50:23.419Z,6.55
2023-11-25T02:51:59.972Z,6.39
2023-11-25T02:53:34.989Z,6.41
2023-11-25T02:55:07.341Z,6.49
2023-11-25T02:56:39.461Z,6.57
2023-11-25T02:58:13.428Z,6.57
2023-11-25T02:59:45.457Z,6.55
2023-11-25T03:01:18.184Z,6.53
2023-11-25T03:02:52.972Z,6.53
2023-11-25T03:04:28.389Z,6.49
2023-11-25T03:06:02.004Z,6.52
2023-11-25T03:07:35.538Z,6.55
2023-11-25T03:09:11.116Z,6.58
2023-11-25T03:10:43.425Z,6.59
2023-11-25T03:12:15.481Z,6.59
2023-11-25T03:13:47.602Z,6.61
2023-11-25T03:15:19.858Z,6.64
2023-11-25T03:16:54.032Z,6.60
2023-11-25T03:18:26.216Z,6.61
2023-11-25T03:19:59.308Z,6.63
2023-11-25T03:21:32.046Z,6.59
2023-11-25T03:23:04.772Z,6.57
2023-11-25T03:24:36.789Z,6.52
2023-11-25T03:26:13.699Z,6.51
2023-11-25T03:27:45.770Z,6.45
2023-11-25T03:29:20.199Z,6.38
2023-11-25T03:30:52.285Z,6.39
2023-11-25T03:32:26.971Z,6.43
2023-11-25T03:33:59.252Z,6.42
2023-11-25T03:35:33.396Z,6.42
2023-11-25T03:37:06.390Z,6.44
2023-11-25T03:38:38.488Z,6.45
2023-11-25T03:40:15.432Z,6.47
2023-11-25T03:41:50.134Z,6.49
2023-11-25T03:43:28.121Z,6.51
2023-11-25T03:45:00.230Z,6.53
2023-11-25T03:46:32.516Z,6.56
2023-11-25T03:48:04.909Z,6.56
2023-11-25T03:49:37.044Z,6.54
2023-11-25T03:51:12.085Z,6.49
2023-11-25T03:52:44.598Z,6.52
2023-11-25T03:54:16.783Z,6.53
2023-11-25T03:55:48.948Z,6.46
2023-11-25T03:57:24.030Z,6.41
2023-11-25T03:58:56.047Z,6.45
2023-11-25T04:00:28.489Z,6.44
2023-11-25T04:02:00.720Z,6.41
2023-11-25T04:03:34.331Z,6.38
2023-11-25T04:05:06.707Z,6.31
2023-11-25T04:06:38.804Z,6.22
2023-11-25T04:08:10.786Z,6.21
2023-11-25T04:09:43.906Z,6.21
2023-11-25T04:11:16.007Z,6.20
2023-11-25T04:12:48.779Z,6.13
2023-11-25T04:14:20.807Z,6.12
2023-11-25T04:15:52.843Z,6.08
2023-11-25T04:17:24.948Z,5.93
2023-11-25T04:18:57.115Z,5.91
2023-11-25T04:20:35.209Z,5.85
2023-11-25T04:22:08.203Z,5.86
2023-11-25T04:23:40.332Z,5.77
2023-11-25T04:25:13.617Z,5.79
2023-11-25T04:26:45.683Z,5.77
2023-11-25T04:28:17.935Z,5.67
2023-11-25T04:29:53.905Z,5.68
2023-11-25T04:31:26.028Z,5.71
2023-11-25T04:32:58.075Z,5.58
2023-11-25T04:34:30.165Z,5.48
2023-11-25T04:36:02.212Z,5.47
2023-11-25T04:37:38.812Z,5.37
2023-11-25T04:39:12.176Z,5.35
2023-11-25T04:40:44.434Z,5.30
2023-11-25T04:42:16.496Z,5.32
2023-11-25T04:43:48.579Z,5.27
2023-11-25T04:45:21.984Z,5.23
2023-11-25T04:46:54.118Z,5.22
2023-11-25T04:48:26.258Z,5.13
2023-11-25T04:49:58.302Z,5.16
2023-11-25T04:51:32.935Z,5.15
2023-11-25T04:53:05.484Z,5.13
2023-11-25T04:54:39.596Z,5.09
2023-11-25T04:56:13.117Z,5.06
2023-11-25T04:57:46.401Z,5.00
2023-11-25T04:59:18.521Z,4.96
2023-11-25T05:00:50.600Z,4.91
2023-11-25T05:02:22.704Z,4.89
2023-11-25T05:03:54.946Z,4.79
2023-11-25T05:05:27.303Z,4.81
2023-11-25T05:06:59.318Z,4.83
2023-11-25T05:08:31.411Z,4.72
2023-11-25T05:10:05.216Z,4.60
2023-11-25T05:11:39.412Z,4.63
2023-11-25T05:13:13.679Z,4.60
2023-11-25T05:14:47.812Z,4.62
2023-11-25T05:16:21.291Z,4.55
2023-11-25T05:17:56.498Z,4.55
2023-11-25T05:19:28.587Z,4.58
2023-11-25T05:21:00.662Z,4.47
2023-11-25T05:22:32.826Z,4.33
2023-11-25T05:24:05.881Z,4.34
2023-11-25T05:25:37.968Z,4.33
2023-11-25T05:27:10.125Z,4.31
2023-11-25T05:28:45.250Z,4.33
2023-11-25T05:30:17.461Z,4.30
2023-11-25T05:31:49.663Z,4.27
2023-11-25T05:33:21.912Z,4.28
2023-11-25T05:34:53.970Z,4.23
2023-11-25T05:36:26.046Z,4.20
2023-11-25T05:37:58.214Z,4.21
2023-11-25T05:39:32.624Z,4.16
2023-11-25T05:41:05.671Z,4.13
2023-11-25T05:42:39.976Z,4.14
2023-11-25T05:44:12.215Z,4.16
2023-11-25T05:45:45.453Z,4.14
2023-11-25T05:47:17.543Z,4.10
2023-11-25T05:48:49.643Z,4.13
2023-11-25T05:50:22.736Z,4.13
2023-11-25T05:51:56.576Z,4.11
2023-11-25T05:53:29.827Z,4.07
2023-11-25T05:55:01.888Z,4.00
2023-11-25T05:56:34.293Z,3.94
2023-11-25T05:58:06.414Z,3.87
2023-11-25T05:59:38.925Z,3.83
2023-11-25T06:01:11.025Z,3.76
2023-11-25T06:02:43.477Z,3.71
2023-11-25T06:04:17.729Z,3.71
2023-11-25T06:05:51.624Z,3.64
2023-11-25T06:07:23.805Z,3.62
2023-11-25T06:08:55.851Z,3.55
2023-11-25T06:10:27.976Z,3.49
2023-11-25T06:12:00.151Z,3.45
2023-11-25T06:13:32.891Z,3.44
2023-11-25T06:15:06.150Z,3.38
2023-11-25T06:16:43.405Z,3.34
2023-11-25T06:18:16.298Z,3.32
2023-11-25T06:19:50.089Z,3.32
2023-11-25T06:21:22.402Z,3.30
2023-11-25T06:22:54.599Z,3.21
2023-11-25T06:24:27.049Z,3.16
2023-11-25T06:25:59.160Z,3.19
2023-11-25T06:27:31.241Z,3.19
2023-11-25T06:29:04.303Z,3.14
2023-11-25T06:30:36.437Z,3.14
2023-11-25T06:32:08.707Z,3.12
2023-11-25T06:33:41.507Z,3.10
2023-11-25T06:35:13.781Z,3.08
2023-11-25T06:36:46.654Z,3.05
2023-11-25T06:38:19.261Z,3.03
2023-11-25T06:39:51.467Z,2.99
2023-11-25T06:41:26.787Z,2.98
2023-11-25T06:42:58.991Z,2.98
2023-11-25T06:44:33.971Z,2.98
2023-11-25T06:46:06.865Z,2.94
2023-11-25T06:47:40.366Z,2.88
2023-11-25T06:49:14.876Z,2.82
2023-11-25T06:50:47.094Z,2.77
2023-11-25T06:52:19.333Z,2.69
2023-11-25T06:53:51.494Z,2.60
2023-11-25T06:55:23.738Z,2.52
2023-11-25T06:56:55.869Z,2.52
2023-11-25T06:58:27.961Z,2.51
2023-11-25T07:00:00.063Z,2.52
2023-11-25T07:01:32.335Z,2.54
2023-11-25T07:03:04.558Z,2.52
2023-11-25T07:04:36.816Z,2.50
2023-11-25T07:06:09.457Z,2.49
2023-11-25T07:07:41.630Z,2.48
2023-11-25T07:09:15.554Z,2.47
2023-11-25T07:10:55.553Z,2.46
2023-11-25T07:12:28.373Z,2.47
2023-11-25T07:14:00.367Z,2.47
2023-11-25T07:15:32.714Z,2.48
2023-11-25T07:17:05.105Z,2.49
2023-11-25T07:18:38.281Z,2.46
2023-11-25T07:20:13.866Z,2.43
2023-11-25T07:21:46.234Z,2.41
2023-11-25T07:23:20.279Z,2.40
2023-11-25T07:24:52.474Z,2.42
2023-11-25T07:26:24.644Z,2.42
2023-11-25T07:27:56.787Z,2.43
2023-11-25T07:29:32.783Z,2.43
2023-11-25T07:31:05.164Z,2.42
2023-11-25T07:32:38.665Z,2.43
2023-11-25T07:34:10.850Z,2.41
2023-11-25T07:35:42.929Z,2.42
2023-11-25T07:37:17.269Z,2.39
2023-11-25T07:38:49.434Z,2.35
2023-11-25T07:40:21.581Z,2.33
2023-11-25T07:41:58.307Z,2.29
2023-11-25T07:43:30.527Z,2.24
2023-11-25T07:45:08.587Z,2.20
2023-11-25T07:46:40.791Z,2.14
2023-11-25T07:48:13.361Z,2.09
2023-11-25T07:49:45.675Z,2.09
2023-11-25T07:51:19.660Z,2.05
2023-11-25T07:52:52.791Z,2.07
2023-11-25T07:54:25.688Z,2.07
2023-11-25T07:55:57.939Z,2.08
2023-11-25T07:57:30.249Z,2.07
2023-11-25T07:59:03.219Z,2.07
2023-11-25T08:00:35.589Z,2.09
2023-11-25T08:02:07.755Z,2.11
2023-11-25T08:03:39.913Z,2.10
2023-11-25T08:05:24.024Z,2.12
2023-11-25T08:06:56.877Z,2.15
2023-11-25T08:08:31.579Z,2.16
2023-11-25T08:10:08.647Z,2.18
2023-11-25T08:11:40.763Z,2.20
2023-11-25T08:13:12.830Z,2.20
2023-11-25T08:14:44.938Z,2.21
2023-11-25T08:16:17.399Z,2.21
2023-11-25T08:17:50.068Z,2.20
2023-11-25T08:19:22.965Z,2.20
2023-11-25T08:20:55.165Z,2.20
2023-11-25T08:22:27.571Z,2.23
2023-11-25T08:23:59.716Z,2.25
2023-11-25T08:25:31.919Z,2.26
2023-11-25T08:27:04.240Z,2.27
2023-11-25T08:28:36.411Z,2.28
2023-11-25T08:30:10.400Z,2.28
2023-11-25T08:31:42.799Z,2.29
2023-11-25T08:33:15.118Z,2.29
2023-11-25T08:34:47.802Z,2.29
2023-11-25T08:36:20.688Z,2.31
2023-11-25T08:37:52.916Z,2.32
2023-11-25T08:39:28.363Z,2.37
2023-11-25T08:41:00.617Z,2.40
2023-11-25T08:42:36.828Z,2.44
2023-11-25T08:44:09.174Z,2.47
2023-11-25T08:45:41.575Z,2.50
2023-11-25T08:47:13.818Z,2.54
2023-11-25T08:48:46.949Z,2.59
2023-11-25T08:50:19.137Z,2.61
2023-11-25T08:51:52.785Z,2.61
2023-11-25T08:53:25.649Z,2.61
2023-11-25T08:54:57.898Z,2.62
2023-11-25T08:56:37.120Z,2.62
2023-11-25T08:58:09.933Z,2.62
2023-11-25T08:59:42.129Z,2.71
2023-11-25T09:01:14.378Z,2.74
2023-11-25T09:02:47.817Z,2.77
2023-11-25T09:04:23.970Z,2.78
2023-11-25T09:05:56.343Z,2.80
2023-11-25T09:07:28.530Z,2.83
2023-11-25T09:09:00.763Z,2.81
2023-11-25T09:10:33.252Z,2.81
2023-11-25T09:12:10.952Z,2.83
2023-11-25T09:13:43.029Z,2.82
2023-11-25T09:15:15.234Z,2.85
2023-11-25T09:16:48.122Z,2.84
2023-11-25T09:18:20.470Z,2.82
2023-11-25T09:19:52.848Z,2.85
2023-11-25T09:21:25.062Z,2.90
2023-11-25T09:22:57.588Z,2.92
2023-11-25T09:24:29.873Z,2.93
2023-11-25T09:26:02.216Z,2.97
2023-11-25T09:27:34.873Z,2.98
2023-11-25T09:29:07.279Z,2.99
2023-11-25T09:30:39.732Z,3.02
2023-11-25T09:32:12.193Z,3.04
2023-11-25T09:33:44.508Z,3.06
2023-11-25T09:35:16.661Z,3.08
2023-11-25T09:36:48.765Z,3.12
2023-11-25T09:38:21.036Z,3.12
2023-11-25T09:39:53.144Z,3.11
2023-11-25T09:41:25.307Z,3.11
2023-11-25T09:42:57.547Z,3.12
2023-11-25T09:44:29.747Z,3.17
2023-11-25T09:46:02.474Z,3.17
2023-11-25T09:47:34.587Z,3.15
2023-11-25T09:49:06.694Z,3.14
2023-11-25T09:50:39.119Z,3.16
2023-11-25T09:52:11.319Z,3.18
2023-11-25T09:53:43.452Z,3.17
2023-11-25T09:55:16.997Z,3.16
2023-11-25T09:56:49.411Z,3.17
2023-11-25T09:58:21.559Z,3.13
2023-11-25T09:59:53.638Z,3.10
2023-11-25T10:01:25.901Z,3.06
2023-11-25T10:02:59.434Z,3.06
2023-11-25T10:04:34.393Z,3.02
2023-11-25T10:06:07.559Z,3.02
2023-11-25T10:07:39.684Z,3.06
2023-11-25T10:09:12.462Z,3.10
2023-11-25T10:10:58.837Z,3.10
2023-11-25T10:12:31.617Z,3.03
2023-11-25T10:14:04.938Z,3.03
2023-11-25T10:15:45.783Z,3.02
2023-11-25T10:17:19.244Z,3.01
2023-11-25T10:18:52.747Z,2.98
2023-11-25T10:20:25.012Z,3.00
2023-11-25T10:21:58.827Z,3.01
2023-11-25T10:23:30.947Z,3.02
2023-11-25T10:25:04.320Z,3.05
2023-11-25T10:26:37.871Z,3.09
2023-11-25T10:28:11.223Z,3.12
2023-11-25T10:29:43.504Z,3.12
2023-11-25T10:31:18.216Z,3.10
2023-11-25T10:32:51.649Z,3.06
2023-11-25T10:34:26.016Z,3.06
2023-11-25T10:35:58.705Z,3.05
2023-11-25T10:37:33.102Z,3.03
2023-11-25T10:39:10.205Z,3.02
2023-11-25T10:40:42.382Z,3.02
2023-11-25T10:42:15.051Z,3.04
2023-11-25T10:43:47.286Z,3.06
2023-11-25T10:45:19.894Z,3.08
2023-11-25T10:46:57.637Z,3.12
2023-11-25T10:48:30.125Z,3.16
2023-11-25T10:50:05.802Z,3.18
2023-11-25T10:51:38.973Z,3.20
2023-11-25T10:53:13.961Z,3.24
2023-11-25T10:54:46.958Z,3.25
2023-11-25T10:56:21.035Z,3.26
2023-11-25T10:57:53.218Z,3.21
2023-11-25T10:59:26.975Z,3.19
2023-11-25T11:00:59.620Z,3.17
2023-11-25T11:02:32.608Z,3.16
2023-11-25T11:04:07.131Z,3.19
2023-11-25T11:05:51.699Z,3.21
2023-11-25T11:07:23.780Z,3.26
2023-11-25T11:08:55.875Z,3.32
2023-11-25T11:10:32.705Z,3.37
2023-11-25T11:12:09.135Z,3.38
2023-11-25T11:13:44.717Z,3.39
2023-11-25T11:15:17.493Z,3.40
2023-11-25T11:16:54.319Z,3.42
2023-11-25T11:18:32.133Z,3.44
2023-11-25T11:20:04.432Z,3.41
2023-11-25T11:21:38.605Z,3.44
2023-11-25T11:23:10.766Z,3.49
2023-11-25T11:24:45.739Z,3.51
2023-11-25T11:26:18.432Z,3.55
2023-11-25T11:27:56.957Z,3.52
2023-11-25T11:29:52.283Z,3.54
2023-11-25T11:31:24.614Z,3.56
2023-11-25T11:32:56.832Z,3.53
2023-11-25T11:34:29.762Z,3.49
2023-11-25T11:36:02.929Z,3.49
2023-11-25T11:37:47.717Z,3.51
2023-11-25T11:39:35.862Z,3.47
2023-11-25T11:41:10.773Z,3.45
2023-11-25T11:42:45.983Z,3.48
2023-11-25T11:44:18.973Z,3.52
2023-11-25T11:45:51.322Z,3.58
2023-11-25T11:47:25.409Z,3.62
2023-11-25T11:48:57.532Z,3.66
2023-11-25T11:50:37.031Z,3.67
2023-11-25T11:52:11.360Z,3.69
2023-11-25T11:53:44.786Z,3.65
2023-11-25T11:55:36.488Z,3.64
2023-11-25T11:57:15.143Z,3.68
2023-11-25T11:58:59.999Z,3.72
2023-11-25T12:00:34.660Z,3.68
2023-11-25T12:02:07.473Z,3.71
2023-11-25T12:03:39.752Z,3.70
2023-11-25T12:05:12.623Z,3.70
2023-11-25T12:06:44.949Z,3.69
2023-11-25T12:08:17.406Z,3.72
2023-11-25T12:09:49.480Z,3.74
2023-11-25T12:11:21.685Z,3.73
2023-11-25T12:12:54.693Z,3.76
2023-11-25T12:14:26.756Z,3.77
2023-11-25T12:16:03.178Z,3.75
2023-11-25T12:17:35.396Z,3.74
2023-11-25T12:19:07.536Z,3.77
2023-11-25T12:20:40.738Z,3.73
2023-11-25T12:22:13.358Z,3.69
2023-11-25T12:23:51.546Z,3.69
2023-11-25T12:25:28.382Z,3.73
2023-11-25T12:27:00.660Z,3.71
2023-11-25T12:28:33.066Z,3.70
2023-11-25T12:30:05.732Z,3.69
2023-11-25T12:31:38.065Z,3.69
2023-11-25T12:33:10.973Z,3.71
2023-11-25T12:34:43.221Z,3.74
2023-11-25T12:36:15.339Z,3.73
2023-11-25T12:38:00.913Z,3.74
2023-11-25T12:39:40.546Z,3.79
2023-11-25T12:41:15.034Z,3.78
2023-11-25T12:42:48.120Z,3.79
2023-11-25T12:44:21.982Z,3.80
2023-11-25T12:45:57.683Z,3.79
2023-11-25T12:47:29.923Z,3.77
2023-11-25T12:49:18.596Z,3.77
2023-11-25T12:51:08.857Z,3.77
2023-11-25T12:52:41.122Z,3.79
2023-11-25T12:54:13.182Z,3.78
2023-11-25T12:55:49.859Z,3.75
2023-11-25T12:57:25.987Z,3.79
2023-11-25T13:00:37.150Z,3.82
2023-11-25T13:02:13.804Z,3.83
2023-11-25T13:03:45.976Z,3.84
2023-11-25T13:05:25.823Z,3.81
2023-11-25T13:07:01.494Z,3.83
2023-11-25T13:08:38.466Z,3.82
2023-11-25T13:10:10.868Z,3.79
2023-11-25T13:11:43.294Z,3.77
2023-11-25T13:13:16.297Z,3.75
2023-11-25T13:14:48.952Z,3.77
2023-11-25T13:16:21.342Z,3.75
2023-11-25T13:17:53.429Z,3.75
2023-11-25T13:19:27.498Z,3.75
2023-11-25T13:21:03.074Z,3.77
2023-11-25T13:22:35.497Z,3.78
2023-11-25T13:24:07.924Z,3.78
2023-11-25T13:25:40.081Z,3.77
2023-11-25T13:27:12.241Z,3.73
2023-11-25T13:28:44.299Z,3.71
2023-11-25T13:30:17.627Z,3.76
2023-11-25T13:31:49.738Z,3.76
2023-11-25T13:33:22.027Z,3.77
2023-11-25T13:34:54.284Z,3.80
2023-11-25T13:36:27.425Z,3.83
2023-11-25T13:38:00.573Z,3.80
2023-11-25T13:39:32.964Z,3.80
2023-11-25T13:41:05.112Z,3.83
2023-11-25T13:44:09.904Z,3.87
2023-11-25T13:45:45.245Z,3.87
2023-11-25T13:47:18.355Z,3.87
2023-11-25T13:48:50.493Z,3.85
2023-11-25T13:50:22.458Z,3.82
2023-11-25T13:51:55.287Z,3.77
2023-11-25T13:53:27.488Z,3.78
2023-11-25T13:54:59.611Z,3.76
2023-11-25T13:56:31.752Z,3.75
2023-11-25T13:58:05.758Z,3.72
2023-11-25T13:59:38.273Z,3.75
2023-11-25T14:01:10.595Z,3.76
2023-11-25T14:02:43.369Z,3.74
2023-11-25T14:04:15.679Z,3.72
2023-11-25T14:05:47.867Z,3.71
2023-11-25T14:07:20.820Z,3.70
2023-11-25T14:08:53.114Z,3.69
2023-11-25T14:10:25.306Z,3.69
2023-11-25T14:11:57.749Z,3.65
2023-11-25T14:13:32.127Z,3.63
2023-11-25T14:15:06.101Z,3.61
2023-11-25T14:16:38.340Z,3.61
2023-11-25T14:18:12.256Z,3.64
2023-11-25T14:19:47.222Z,3.61
2023-11-25T14:21:20.028Z,3.62
2023-11-25T14:22:52.536Z,3.66
2023-11-25T14:24:24.978Z,3.68
2023-11-25T14:25:57.103Z,3.68
2023-11-25T14:27:29.920Z,3.68
2023-11-25T14:29:03.875Z,3.68
2023-11-25T14:30:35.948Z,3.63
2023-11-25T14:32:08.250Z,3.67
2023-11-25T14:33:43.412Z,3.67
2023-11-25T14:35:15.626Z,3.60
2023-11-25T14:36:47.736Z,3.57
2023-11-25T14:40:00.380Z,3.51
2023-11-25T14:41:33.649Z,3.49
2023-11-25T14:43:07.255Z,3.48
2023-11-25T14:44:40.461Z,3.41
2023-11-25T14:46:13.283Z,3.40
2023-11-25T14:47:49.215Z,3.41
2023-11-25T14:49:21.356Z,3.40
2023-11-25T14:50:53.751Z,3.39
2023-11-25T14:52:26.365Z,3.35
2023-11-25T14:53:58.459Z,3.30
2023-11-25T14:55:30.783Z,3.30
2023-11-25T14:57:11.553Z,3.28
2023-11-25T14:58:43.863Z,3.26
2023-11-25T15:00:19.857Z,3.27
2023-11-25T15:01:54.841Z,3.29
2023-11-25T15:03:29.868Z,3.31
2023-11-25T15:05:02.169Z,3.29
2023-11-25T15:06:35.777Z,3.28
2023-11-25T15:08:08.656Z,3.24
2023-11-25T15:09:40.978Z,3.15
2023-11-25T15:11:13.151Z,3.16
2023-11-25T15:12:45.785Z,3.14
2023-11-25T15:14:17.924Z,3.12
2023-11-25T15:15:51.569Z,3.09
2023-11-25T15:17:27.420Z,3.07
2023-11-25T15:18:59.712Z,3.07
2023-11-25T15:20:31.824Z,3.06
2023-11-25T15:22:04.240Z,3.02
2023-11-25T15:23:39.048Z,3.01
2023-11-25T15:25:13.058Z,2.96
2023-11-25T15:26:45.226Z,2.91
2023-11-25T15:28:17.688Z,2.90
2023-11-25T15:30:02.536Z,2.87
2023-11-25T15:31:34.728Z,2.83
2023-11-25T15:33:06.967Z,2.84
2023-11-25T15:34:39.132Z,2.80
2023-11-25T15:36:11.709Z,2.78
2023-11-25T15:37:44.578Z,2.75
2023-11-25T15:39:18.041Z,2.74
2023-11-25T15:40:50.162Z,2.70
2023-11-25T15:42:22.289Z,2.70
2023-11-25T15:43:54.803Z,2.72
2023-11-25T15:45:26.905Z,2.73
2023-11-25T15:46:59.304Z,2.71
2023-11-25T15:48:31.428Z,2.69
2023-11-25T15:50:03.543Z,2.69
2023-11-25T15:51:36.464Z,2.66
2023-11-25T15:53:10.383Z,2.61
2023-11-25T15:54:42.589Z,2.57
2023-11-25T15:56:14.757Z,2.53
2023-11-25T15:57:46.929Z,2.49
2023-11-25T15:59:19.043Z,2.46
2023-11-25T16:00:55.329Z,2.45
2023-11-25T16:02:27.594Z,2.45
2023-11-25T16:03:59.802Z,2.42
2023-11-25T16:05:32.481Z,2.38
2023-11-25T16:07:05.659Z,2.36
2023-11-25T16:08:37.990Z,2.33
2023-11-25T16:10:11.715Z,2.29
2023-11-25T16:11:43.809Z,2.26
2023-11-25T16:13:15.918Z,2.22
2023-11-25T16:14:48.145Z,2.19
2023-11-25T16:16:20.331Z,2.17
2023-11-25T16:17:52.441Z,2.15
2023-11-25T16:20:57.754Z,2.17
2023-11-25T16:22:29.992Z,2.15
2023-11-25T16:24:02.158Z,2.15
2023-11-25T16:25:34.422Z,2.14
2023-11-25T16:27:06.709Z,2.17
2023-11-25T16:28:38.784Z,2.17
2023-11-25T16:30:15.288Z,2.18
2023-11-25T16:33:26.987Z,2.17
2023-11-25T16:34:59.147Z,2.18
2023-11-25T16:36:34.548Z,2.20
2023-11-25T16:38:07.341Z,2.19
2023-11-25T16:39:39.465Z,2.19
2023-11-25T16:41:13.160Z,2.17
2023-11-25T16:42:45.467Z,2.18
2023-11-25T16:44:21.398Z,2.21
2023-11-25T16:45:53.946Z,2.16
2023-11-25T16:47:26.106Z,2.15
2023-11-25T16:49:04.406Z,2.14
2023-11-25T16:50:41.368Z,2.11
2023-11-25T16:52:13.449Z,2.09
2023-11-25T16:53:45.592Z,2.09
2023-11-25T16:55:17.913Z,2.11
2023-11-25T16:56:50.030Z,2.10
2023-11-25T16:58:22.220Z,2.10
2023-11-25T16:59:54.333Z,2.10
2023-11-25T17:01:27.715Z,2.09
2023-11-25T17:03:00.065Z,2.04
2023-11-25T17:04:34.989Z,2.04
2023-11-25T17:06:10.817Z,2.01
2023-11-25T17:07:42.900Z,2.00
2023-11-25T17:09:15.154Z,1.97
2023-11-25T17:10:47.312Z,1.94
2023-11-25T17:12:19.509Z,1.95
2023-11-25T17:13:51.700Z,1.97
2023-11-25T17:15:23.843Z,1.96
2023-11-25T17:16:56.897Z,1.93
2023-11-25T17:18:29.257Z,1.90
2023-11-25T17:20:01.364Z,1.84
2023-11-25T17:21:33.560Z,1.80
2023-11-25T17:23:05.803Z,1.79
2023-11-25T17:24:37.987Z,1.78
2023-11-25T17:26:10.124Z,1.78
2023-11-25T17:27:42.306Z,1.78
2023-11-25T17:29:15.502Z,1.77
2023-11-25T17:30:47.673Z,1.76
2023-11-25T17:32:20.429Z,1.74
2023-11-25T17:33:55.698Z,1.73
2023-11-25T17:35:27.812Z,1.74
2023-11-25T17:37:01.994Z,1.75
2023-11-25T17:38:34.045Z,1.75
2023-11-25T17:40:07.016Z,1.75
2023-11-25T17:41:39.222Z,1.74
2023-11-25T17:43:11.313Z,1.75
2023-11-25T17:44:43.420Z,1.75
2023-11-25T17:46:15.610Z,1.74
2023-11-25T17:47:47.752Z,1.74
2023-11-25T17:49:19.891Z,1.74
2023-11-25T17:50:51.969Z,1.74
2023-11-25T17:52:24.222Z,1.76
2023-11-25T17:53:57.980Z,1.76
2023-11-25T17:55:30.093Z,1.76
2023-11-25T17:57:03.987Z,1.74
2023-11-25T17:58:36.185Z,1.72
2023-11-25T18:00:11.839Z,1.73
2023-11-25T18:01:44.075Z,1.73
2023-11-25T18:03:16.522Z,1.72
2023-11-25T18:04:48.662Z,1.72
2023-11-25T18:06:21.449Z,1.69
2023-11-25T18:07:55.292Z,1.70
2023-11-25T18:09:27.485Z,1.70
2023-11-25T18:10:59.629Z,1.69
2023-11-25T18:12:31.825Z,1.70
2023-11-25T18:14:04.031Z,1.70
2023-11-25T18:15:36.170Z,1.70
2023-11-25T18:17:08.332Z,1.72
2023-11-25T18:18:40.607Z,1.74
2023-11-25T18:20:12.909Z,1.76
2023-11-25T18:21:45.018Z,1.75
2023-11-25T18:23:17.353Z,1.73
2023-11-25T18:24:49.740Z,1.72
2023-11-25T18:26:22.077Z,1.71
2023-11-25T18:27:54.707Z,1.68
2023-11-25T18:29:27.278Z,1.68
2023-11-25T18:31:00.483Z,1.71
2023-11-25T18:32:32.621Z,1.71
2023-11-25T18:34:04.741Z,1.72
2023-11-25T18:35:38.339Z,1.72
2023-11-25T18:37:13.538Z,1.74
2023-11-25T18:38:45.773Z,1.72
2023-11-25T18:40:18.202Z,1.72
2023-11-25T18:41:50.228Z,1.72
2023-11-25T18:43:22.350Z,1.73
2023-11-25T18:44:54.820Z,1.72
2023-11-25T19:59:25.881Z,1.86
2023-11-25T20:00:58.589Z,1.86
2023-11-25T20:02:31.045Z,1.82
2023-11-25T20:04:03.499Z,1.79
2023-11-25T20:05:35.994Z,1.74
2023-11-25T20:07:08.862Z,1.71
2023-11-25T20:08:41.053Z,1.65
2023-11-25T20:10:13.970Z,1.68
2023-11-25T20:11:46.315Z,1.66
2023-11-25T20:13:19.690Z,1.68
2023-11-25T20:14:55.020Z,1.67
2023-11-25T20:16:33.224Z,1.66
2023-11-25T20:18:05.582Z,1.63
2023-11-25T20:19:38.377Z,1.60
2023-11-25T20:21:10.704Z,1.62
2023-11-25T20:22:43.161Z,1.60
2023-11-25T20:24:15.864Z,1.65
2023-11-25T20:25:48.738Z,1.65
2023-11-25T20:27:25.757Z,1.62
2023-11-25T20:28:58.112Z,1.53
2023-11-25T20:30:30.382Z,1.54
2023-11-25T20:32:03.524Z,1.50
2023-11-25T20:33:38.758Z,1.52
2023-11-25T20:35:11.248Z,1.54
2023-11-25T20:36:43.572Z,1.58
2023-11-25T20:38:15.915Z,1.60
2023-11-25T20:39:48.203Z,1.64
2023-11-25T20:41:20.459Z,1.66
2023-11-25T20:42:52.873Z,1.61
2023-11-25T20:44:25.396Z,1.63
2023-11-25T20:45:57.740Z,1.59
2023-11-25T20:47:30.075Z,1.61
2023-11-25T20:49:02.417Z,1.52
2023-11-25T20:50:34.889Z,1.53
2023-11-25T20:52:07.647Z,1.55
2023-11-25T20:53:41.355Z,1.51
2023-11-25T20:55:13.953Z,1.51
2023-11-25T20:56:51.470Z,1.54
2023-11-25T20:58:23.757Z,1.52
2023-11-25T20:59:56.108Z,1.54
2023-11-25T21:01:29.582Z,1.61
2023-11-25T21:03:02.139Z,1.61
2023-11-25T21:04:34.524Z,1.59
2023-11-25T21:06:07.895Z,1.64
2023-11-25T21:07:40.343Z,1.65
2023-11-25T21:09:14.157Z,1.68
2023-11-25T21:10:49.095Z,1.69
2023-11-25T21:12:21.997Z,1.68
2023-11-25T21:13:54.488Z,1.71
2023-11-25T21:15:26.772Z,1.73
2023-11-25T21:17:00.081Z,1.73
2023-11-25T21:18:37.642Z,1.71
2023-11-25T21:20:10.940Z,1.74
2023-11-25T21:21:43.373Z,1.69
2023-11-25T21:23:15.677Z,1.67
2023-11-25T21:24:48.003Z,1.69
2023-11-25T21:26:20.365Z,1.68
2023-11-25T21:27:56.571Z,1.70
2023-11-25T21:29:28.799Z,1.63
2023-11-25T21:31:01.134Z,1.64
2023-11-25T21:32:33.497Z,1.64
2023-11-25T21:34:06.405Z,1.65
2023-11-25T21:35:38.702Z,1.65
2023-11-25T21:37:11.105Z,1.66
2023-11-25T21:38:43.795Z,1.66
2023-11-25T21:40:22.883Z,1.64
2023-11-25T21:41:56.071Z,1.64
2023-11-25T21:43:28.385Z,1.66
2023-11-25T21:45:01.159Z,1.68
2023-11-25T21:46:33.472Z,1.68
2023-11-25T21:48:08.138Z,1.72
2023-11-25T21:49:43.893Z,1.76
2023-11-25T21:51:16.173Z,1.74
2023-11-25T21:52:48.523Z,1.71
2023-11-25T21:54:20.790Z,1.73
2023-11-25T21:55:53.046Z,1.73
2023-11-25T21:57:26.323Z,1.72
2023-11-25T21:58:58.776Z,1.72
2023-11-25T22:00:31.066Z,1.69
2023-11-25T22:02:03.730Z,1.68
2023-11-25T22:03:40.365Z,1.63
2023-11-25T22:05:12.988Z,1.65
2023-11-25T22:06:45.501Z,1.65